Time;durP1;ratioP1;P1;durP2;ratioP2;P2;SDS_P1;SDS_P2;PMS_P1;PMS_P2;Temp;Humidity;BMP_temperature;BMP_pressure;BME280_temperature;BME280_humidity;BME280_pressure;Samples;Min_cycle;Max_cycle;Signal;HPM_P1;HPM_P2
2021/11/05 00:01:38;;;;;;;;;3.00;3.00;;;;;9.13;74.86;100748.34;5075822;28;45206;-79
2021/11/05 00:04:03;;;;;;;;;5.25;2.25;;;;;9.13;74.97;100750.16;5076197;28;45225;-79
2021/11/05 00:06:29;;;;;;;;;5.75;3.75;;;;;9.14;74.93;100758.03;5076068;28;45292;-80
2021/11/05 00:08:54;;;;;;;;;3.00;2.00;;;;;9.13;75.30;100760.78;5076231;28;46362;-80
2021/11/05 00:11:19;;;;;;;;;5.25;4.00;;;;;9.12;75.20;100759.03;5076365;28;45186;-80
2021/11/05 00:13:45;;;;;;;;;4.50;3.00;;;;;9.05;74.77;100744.34;5076211;28;45243;-80
2021/11/05 00:16:10;;;;;;;;;6.00;3.50;;;;;9.05;75.11;100757.59;5076284;28;45214;-80
2021/11/05 00:18:35;;;;;;;;;3.50;2.50;;;;;9.01;74.48;100754.25;5060686;28;48226;-80
2021/11/05 00:21:02;;;;;;;;;7.00;4.00;;;;;8.98;74.69;100762.34;5078046;28;45943;-80
2021/11/05 00:23:27;;;;;;;;;4.75;3.75;;;;;8.96;75.25;100758.88;5079818;28;45255;-79
2021/11/05 00:25:53;;;;;;;;;4.50;4.50;;;;;8.93;74.75;100759.03;5079625;28;45228;-80
2021/11/05 00:28:18;;;;;;;;;5.00;4.50;;;;;8.86;74.87;100753.13;5079601;28;46011;-79
2021/11/05 00:30:44;;;;;;;;;5.50;4.00;;;;;8.84;75.19;100754.16;5079497;28;45233;-79
2021/11/05 00:33:09;;;;;;;;;8.75;3.00;;;;;8.83;74.69;100763.03;5061069;28;45758;-79
2021/11/05 00:35:34;;;;;;;;;3.50;2.25;;;;;8.81;75.24;100761.31;5079206;28;45226;-80
2021/11/05 00:38:00;;;;;;;;;4.50;3.50;;;;;8.77;75.15;100761.50;5079416;28;45260;-79
2021/11/05 00:40:28;;;;;;;;;4.75;4.75;;;;;8.78;75.16;100761.44;5079526;28;45324;-79
2021/11/05 00:42:54;;;;;;;;;4.00;4.00;;;;;8.77;74.82;100761.50;5079373;28;45265;-79
2021/11/05 00:45:19;;;;;;;;;3.50;3.25;;;;;8.76;75.14;100765.09;5079099;28;45536;-79
2021/11/05 00:47:44;;;;;;;;;4.00;3.00;;;;;8.73;74.59;100778.47;5079038;28;46464;-79
2021/11/05 00:50:11;;;;;;;;;4.00;2.00;;;;;8.68;74.99;100777.81;5079121;28;45261;-78
2021/11/05 00:52:36;;;;;;;;;2.00;2.00;;;;;8.69;75.11;100782.19;5079021;28;45256;-78
2021/11/05 00:55:02;;;;;;;;;6.00;3.00;;;;;8.68;74.78;100781.34;5078664;28;45175;-78
2021/11/05 00:57:28;;;;;;;;;4.75;2.75;;;;;8.68;75.03;100785.75;5078880;28;45325;-78
2021/11/05 00:59:53;;;;;;;;;4.25;4.25;;;;;8.66;74.87;100790.28;5078693;28;45264;-78
2021/11/05 01:02:18;;;;;;;;;4.00;3.75;;;;;8.66;74.98;100795.59;5079241;28;45372;-78
2021/11/05 01:04:44;;;;;;;;;5.00;3.00;;;;;8.63;75.04;100800.06;5078906;28;45127;-79
2021/11/05 01:07:09;;;;;;;;;4.50;3.25;;;;;8.63;75.20;100805.38;5078740;28;46197;-79
2021/11/05 01:09:35;;;;;;;;;4.50;3.25;;;;;8.64;74.75;100806.25;5078647;28;45286;-78
2021/11/05 01:12:00;;;;;;;;;5.50;3.75;;;;;8.63;74.81;100808.03;5078949;28;45277;-78
2021/11/05 01:14:25;;;;;;;;;3.25;3.00;;;;;8.61;74.81;100804.59;5078844;28;45273;-79
2021/11/05 01:16:51;;;;;;;;;3.50;2.00;;;;;8.59;74.95;100802.94;5078444;28;46025;-79
2021/11/05 01:19:16;;;;;;;;;3.75;3.50;;;;;8.58;74.87;100817.09;5078571;28;45159;-78
2021/11/05 01:21:41;;;;;;;;;4.75;2.50;;;;;8.57;74.91;100815.41;5078584;28;45493;-79
2021/11/05 01:24:07;;;;;;;;;3.50;2.50;;;;;8.54;74.88;100819.03;5060419;28;45167;-78
2021/11/05 01:26:32;;;;;;;;;7.75;3.00;;;;;8.52;74.62;100820.88;5078556;28;45885;-78
2021/11/05 01:28:57;;;;;;;;;4.00;1.75;;;;;8.46;74.76;100821.16;5077265;28;45230;-78
2021/11/05 01:31:24;;;;;;;;;5.25;3.00;;;;;8.45;74.53;100835.31;5078250;28;45154;-78
2021/11/05 01:33:49;;;;;;;;;3.00;3.00;;;;;8.42;74.46;100833.66;5078163;28;45352;-78
2021/11/05 01:36:15;;;;;;;;;5.00;2.00;;;;;8.41;74.55;100836.38;5078227;28;45857;-79
2021/11/05 01:38:40;;;;;;;;;4.75;3.00;;;;;8.37;74.52;100835.63;5078049;28;45258;-78
2021/11/05 01:41:06;;;;;;;;;3.50;1.50;;;;;8.28;75.08;100826.28;5078145;28;45224;-78
2021/11/05 01:43:31;;;;;;;;;4.25;2.00;;;;;8.30;74.57;100828.84;5078378;28;45214;-78
2021/11/05 01:45:57;;;;;;;;;4.75;2.75;;;;;8.26;74.85;100836.03;5078066;28;45232;-79
2021/11/05 01:48:22;;;;;;;;;3.25;1.75;;;;;8.23;75.23;100836.19;5077862;28;45237;-78
2021/11/05 01:50:47;;;;;;;;;6.00;3.50;;;;;8.20;74.74;100838.97;5078274;28;45383;-78
2021/11/05 01:53:14;;;;;;;;;2.00;2.00;;;;;8.19;75.07;100837.22;5078177;28;45253;-78
2021/11/05 01:55:43;;;;;;;;;4.50;2.00;;;;;8.17;74.75;100840.88;5078003;28;45197;-78
2021/11/05 01:58:12;;;;;;;;;4.00;2.00;;;;;8.16;75.06;100844.44;5077240;28;45515;-78
2021/11/05 02:00:40;;;;;;;;;4.00;3.00;;;;;8.12;74.99;100847.22;5078176;28;45192;-77
2021/11/05 02:03:06;;;;;;;;;4.75;2.25;;;;;8.12;75.44;100847.22;5077980;28;45150;-77
2021/11/05 02:05:31;;;;;;;;;3.75;2.25;;;;;8.08;75.21;100844.75;5077730;28;46092;-77
2021/11/05 02:07:57;;;;;;;;;4.25;2.25;;;;;8.12;75.08;100857.81;5077743;28;45429;-77
2021/11/05 02:10:26;;;;;;;;;0.25;0.25;;;;;8.11;75.14;100850.78;5077617;28;45193;-77
2021/11/05 02:12:52;;;;;;;;;3.00;2.00;;;;;8.11;75.28;100858.75;5077773;28;45203;-77
2021/11/05 02:15:18;;;;;;;;;3.00;2.00;;;;;8.11;74.98;100855.25;5077700;28;46459;-77
2021/11/05 02:17:46;;;;;;;;;3.00;1.00;;;;;8.10;75.43;100858.81;5077214;28;45639;-77
2021/11/05 02:20:14;;;;;;;;;4.50;2.00;;;;;8.12;75.37;100855.19;5077744;28;45213;-77
2021/11/05 02:22:40;;;;;;;;;2.25;2.00;;;;;8.12;75.06;100852.53;5077965;28;45182;-77
2021/11/05 02:25:06;;;;;;;;;2.00;1.75;;;;;8.15;75.71;100858.59;5077602;28;45237;-77
2021/11/05 02:27:32;;;;;;;;;5.50;1.50;;;;;8.09;75.34;100847.34;5077476;28;45686;-76
2021/11/05 02:30:03;;;;;;;;;3.00;3.00;;;;;8.11;75.56;100848.16;5077371;28;45490;-76
2021/11/05 02:32:28;;;;;;;;;3.50;2.00;;;;;8.16;75.22;100858.53;5077471;28;45136;-77
2021/11/05 02:34:54;;;;;;;;;5.75;3.00;;;;;8.16;75.57;100865.63;5077009;28;45314;-77
2021/11/05 02:37:24;;;;;;;;;4.00;2.25;;;;;8.20;75.36;100872.53;5077486;28;45330;-77
2021/11/05 02:39:50;;;;;;;;;4.00;2.75;;;;;8.22;75.44;100873.31;5076866;28;45253;-77
2021/11/05 02:42:15;;;;;;;;;3.75;2.75;;;;;8.23;75.80;100875.06;5077459;28;45205;-77
2021/11/05 02:44:41;;;;;;;;;5.00;2.25;;;;;8.27;75.64;100879.31;5077327;28;46129;-77
2021/11/05 02:47:25;;;;;;;;;3.00;3.00;;;;;8.27;75.74;100877.50;5077221;28;45244;-76
2021/11/05 02:49:52;;;;;;;;;3.75;2.00;;;;;8.30;75.76;100879.19;5077478;28;45279;-77
2021/11/05 02:52:18;;;;;;;;;2.75;2.25;;;;;8.30;75.70;100884.47;5077208;28;45164;-77
2021/11/05 02:54:44;;;;;;;;;4.50;3.00;;;;;8.30;75.50;100874.75;5076921;28;45858;-77
2021/11/05 02:57:10;;;;;;;;;4.00;2.25;;;;;8.36;75.60;100884.22;5077038;28;45241;-77
2021/11/05 02:59:36;;;;;;;;;2.75;2.75;;;;;8.35;75.53;100879.00;5077095;28;45251;-77
2021/11/05 03:02:01;;;;;;;;;3.75;3.00;;;;;8.37;75.39;100885.97;5077201;28;45362;-77
2021/11/05 03:04:27;;;;;;;;;4.25;4.00;;;;;8.38;75.07;100889.47;5076951;28;45860;-77
2021/11/05 03:06:59;;;;;;;;;7.50;4.00;;;;;8.37;75.32;100888.59;5077063;28;45127;-77
2021/11/05 03:09:31;;;;;;;;;4.00;3.00;;;;;8.39;75.25;100885.91;5075729;28;45211;-77
2021/11/05 03:11:56;;;;;;;;;4.25;3.00;;;;;8.41;75.46;100898.16;5077252;28;45303;-78
2021/11/05 03:14:21;;;;;;;;;4.00;2.50;;;;;8.42;74.98;100896.34;5076491;28;45168;-77
2021/11/05 03:16:47;;;;;;;;;2.75;2.00;;;;;8.43;75.30;100893.66;5076856;28;45172;-77
2021/11/05 03:19:12;;;;;;;;;4.00;3.25;;;;;8.43;75.48;100903.41;5076721;28;45095;-77
2021/11/05 03:21:38;;;;;;;;;2.00;2.00;;;;;8.46;75.23;100898.00;5077006;28;45346;-77
2021/11/05 03:24:04;;;;;;;;;4.50;2.50;;;;;8.48;75.41;100903.22;5076615;28;46569;-76
2021/11/05 03:26:29;;;;;;;;;4.00;2.50;;;;;8.48;74.86;100906.75;5076663;28;45728;-77
2021/11/05 03:28:55;;;;;;;;;4.50;2.75;;;;;8.47;75.26;100905.03;5076890;28;45257;-77
2021/11/05 03:31:20;;;;;;;;;3.25;3.00;;;;;8.49;75.30;100915.56;5076814;28;45310;-77
2021/11/05 03:33:45;;;;;;;;;4.50;3.00;;;;;8.50;74.96;100918.16;5076309;28;45230;-77
2021/11/05 03:36:11;;;;;;;;;3.00;2.00;;;;;8.51;75.08;100913.69;5076582;28;45356;-77
2021/11/05 03:38:36;;;;;;;;;3.50;1.75;;;;;8.52;75.33;100920.72;5076755;28;45199;-77
2021/11/05 03:41:02;;;;;;;;;4.00;3.00;;;;;8.50;75.39;100915.50;5076568;28;45127;-77
2021/11/05 03:43:29;;;;;;;;;2.50;1.25;;;;;8.53;75.03;100928.63;5076498;28;45517;-77
2021/11/05 03:45:54;;;;;;;;;3.75;2.00;;;;;8.52;74.89;100929.53;5076067;28;45133;-77
2021/11/05 03:48:20;;;;;;;;;1.25;1.25;;;;;8.50;75.24;100933.19;5076565;28;45211;-77
2021/11/05 03:50:45;;;;;;;;;4.00;1.25;;;;;8.45;74.85;100926.28;5076537;28;45250;-77
2021/11/05 03:53:10;;;;;;;;;1.25;1.25;;;;;8.50;75.26;100936.69;5078479;28;46802;-77
2021/11/05 03:55:36;;;;;;;;;3.25;2.25;;;;;8.48;75.06;100938.56;5079988;28;45213;-77
2021/11/05 03:58:01;;;;;;;;;4.75;2.50;;;;;8.45;74.98;100936.91;5079833;28;45268;-77
2021/11/05 04:00:26;;;;;;;;;4.75;2.00;;;;;8.48;75.12;100942.97;5080401;28;45238;-77
2021/11/05 04:02:52;;;;;;;;;4.00;2.75;;;;;8.49;74.91;100948.22;5079507;28;46263;-77
2021/11/05 04:05:17;;;;;;;;;2.25;1.50;;;;;8.49;74.86;100948.22;5079850;28;45267;-78
2021/11/05 04:07:42;;;;;;;;;2.00;2.00;;;;;8.49;74.81;100948.22;5079875;28;45445;-77
2021/11/05 04:10:09;;;;;;;;;5.75;3.00;;;;;8.46;74.64;100956.28;5079918;28;45297;-78
2021/11/05 04:12:35;;;;;;;;;3.25;2.00;;;;;8.44;74.53;100944.88;5079739;28;45941;-78
2021/11/05 04:15:00;;;;;;;;;3.00;2.00;;;;;8.45;74.97;100962.50;5079876;28;45337;-78
2021/11/05 04:17:26;;;;;;;;;3.50;2.25;;;;;8.45;74.73;100968.69;5079693;28;45314;-78
2021/11/05 04:19:51;;;;;;;;;3.50;2.00;;;;;8.48;74.55;100977.44;5079519;28;45289;-78
2021/11/05 04:22:17;;;;;;;;;3.75;2.00;;;;;8.46;74.72;100977.50;5079325;28;46347;-77
2021/11/05 04:24:43;;;;;;;;;4.50;2.00;;;;;8.48;74.94;100980.97;5079144;28;45341;-77
2021/11/05 04:27:08;;;;;;;;;4.00;1.75;;;;;8.49;74.91;100995.91;5079317;28;45186;-77
2021/11/05 04:29:35;;;;;;;;;1.00;1.00;;;;;8.48;74.54;100977.44;5079717;28;45206;-77
2021/11/05 04:32:00;;;;;;;;;4.00;2.75;;;;;8.52;74.60;100992.28;5079109;28;46188;-77
2021/11/05 04:34:26;;;;;;;;;3.00;2.00;;;;;8.52;75.19;100995.78;5079291;28;45205;-78
2021/11/05 04:36:52;;;;;;;;;3.00;1.25;;;;;8.53;74.90;101001.97;5079678;28;45293;-78
2021/11/05 04:39:17;;;;;;;;;3.00;3.00;;;;;8.53;74.67;101002.81;5079374;28;45246;-77
2021/11/05 04:41:46;;;;;;;;;2.25;1.75;;;;;8.48;74.94;100994.22;5079239;28;45210;-77
2021/11/05 04:44:11;;;;;;;;;4.50;2.25;;;;;8.52;74.22;101008.19;5079035;28;45639;-77
2021/11/05 04:46:37;;;;;;;;;1.00;1.00;;;;;8.54;74.66;101007.22;5079202;28;45574;-77
2021/11/05 04:49:03;;;;;;;;;3.75;3.00;;;;;8.54;74.47;101012.50;5079328;28;45172;-78
2021/11/05 04:51:29;;;;;;;;;3.75;2.00;;;;;8.53;74.78;101016.06;5079139;28;45260;-77
2021/11/05 04:53:54;;;;;;;;;3.00;3.00;;;;;8.57;74.70;101020.34;5079137;28;45210;-78
2021/11/05 04:56:19;;;;;;;;;2.50;2.50;;;;;8.56;74.49;101023.06;5079284;28;45200;-77
2021/11/05 04:58:45;;;;;;;;;2.00;1.00;;;;;8.54;75.01;101028.41;5078686;28;45293;-77
2021/11/05 05:01:10;;;;;;;;;3.50;2.00;;;;;8.49;74.38;101014.47;5078958;28;45147;-77
2021/11/05 05:03:36;;;;;;;;;1.25;1.25;;;;;8.54;74.36;101025.75;5078309;28;45194;-77
2021/11/05 05:06:02;;;;;;;;;1.00;1.00;;;;;8.58;74.15;101037.09;5079031;28;45210;-77
2021/11/05 05:08:27;;;;;;;;;0.75;0.75;;;;;8.57;74.58;101035.38;5079012;28;45228;-78
2021/11/05 05:10:52;;;;;;;;;2.00;1.75;;;;;8.56;74.26;101042.47;5079117;28;45205;-77
2021/11/05 05:13:17;;;;;;;;;3.25;2.00;;;;;8.55;74.43;101040.75;5078776;28;45262;-77
2021/11/05 05:15:43;;;;;;;;;3.25;1.00;;;;;8.54;74.16;101046.97;5078936;28;45297;-77
2021/11/05 05:18:09;;;;;;;;;4.00;1.00;;;;;8.55;74.21;101042.53;5078795;28;45094;-77
2021/11/05 05:20:35;;;;;;;;;3.00;2.00;;;;;8.57;74.22;101044.19;5078669;28;45310;-77
2021/11/05 05:23:00;;;;;;;;;3.00;1.00;;;;;8.56;74.54;101050.41;5078479;28;45247;-78
2021/11/05 05:25:26;;;;;;;;;7.25;1.75;;;;;8.60;74.13;101057.31;5078893;28;45186;-78
2021/11/05 05:27:51;;;;;;;;;2.75;2.00;;;;;8.61;74.10;101053.75;5078562;28;45257;-78
2021/11/05 05:30:18;;;;;;;;;2.25;2.00;;;;;8.59;74.09;101063.56;5078440;28;45273;-77
2021/11/05 05:32:46;;;;;;;;;2.75;1.00;;;;;8.57;73.95;101046.84;5078444;28;45565;-77
2021/11/05 05:35:13;;;;;;;;;2.25;1.00;;;;;8.62;74.46;101059.91;5078490;28;45200;-78
2021/11/05 05:37:38;;;;;;;;;5.25;2.00;;;;;8.60;74.24;101059.13;5078639;28;45167;-78
2021/11/05 05:40:05;;;;;;;;;3.75;2.00;;;;;8.56;74.28;101068.09;5078277;28;46294;-77
2021/11/05 05:42:31;;;;;;;;;0.75;0.75;;;;;8.53;73.75;101068.22;5078141;28;45641;-78
2021/11/05 05:44:56;;;;;;;;;3.00;2.00;;;;;8.55;74.47;101076.97;5078381;28;45194;-77
2021/11/05 05:47:22;;;;;;;;;1.00;1.00;;;;;8.55;73.92;101076.97;5076717;28;45435;-77
2021/11/05 05:49:49;;;;;;;;;2.75;1.75;;;;;8.49;74.37;101075.41;5078075;28;45817;-78
2021/11/05 05:52:15;;;;;;;;;4.00;1.50;;;;;8.52;74.40;101080.59;5078315;28;45268;-78
2021/11/05 05:54:40;;;;;;;;;2.00;1.50;;;;;8.51;73.88;101089.50;5077748;28;45293;-78
2021/11/05 05:57:06;;;;;;;;;1.00;1.00;;;;;8.50;74.35;101084.25;5078284;28;45209;-78
2021/11/05 05:59:31;;;;;;;;;2.25;1.75;;;;;8.49;74.17;101093.97;5077651;28;46147;-78
2021/11/05 06:01:56;;;;;;;;;3.25;1.00;;;;;8.46;73.77;101088.78;5078170;28;45209;-78
2021/11/05 06:04:25;;;;;;;;;2.50;1.25;;;;;8.49;73.98;101093.97;5077959;28;45197;-78
2021/11/05 06:06:51;;;;;;;;;2.25;1.50;;;;;8.49;73.86;101099.28;5078087;28;45135;-78
2021/11/05 06:09:16;;;;;;;;;4.00;1.25;;;;;8.45;73.85;101098.53;5077720;28;45171;-78
2021/11/05 06:11:41;;;;;;;;;1.00;1.00;;;;;8.48;73.75;101100.22;5059649;28;45215;-78
2021/11/05 06:14:07;;;;;;;;;2.25;2.00;;;;;8.45;74.29;101103.84;5077678;28;45152;-78
2021/11/05 06:16:32;;;;;;;;;1.75;1.75;;;;;8.48;73.71;101108.16;5077492;28;45237;-78
2021/11/05 06:18:59;;;;;;;;;1.00;1.00;;;;;8.49;73.86;101116.97;5077730;28;45160;-78
2021/11/05 06:21:26;;;;;;;;;1.50;0.50;;;;;8.48;73.88;101110.81;5077520;28;45604;-78
2021/11/05 06:23:52;;;;;;;;;0.75;0.00;;;;;8.53;73.85;101116.78;5077743;28;45272;-78
2021/11/05 06:26:17;;;;;;;;;1.00;1.00;;;;;8.51;73.19;101115.13;5077997;28;45122;-78
2021/11/05 06:28:43;;;;;;;;;2.25;2.00;;;;;8.57;73.69;101131.66;5077240;28;45918;-78
2021/11/05 06:31:09;;;;;;;;;1.00;1.00;;;;;8.54;73.25;101129.13;5077499;28;45151;-78
2021/11/05 06:33:34;;;;;;;;;2.25;2.00;;;;;8.62;73.49;101140.31;5077609;28;45644;-78
2021/11/05 06:35:59;;;;;;;;;1.00;1.00;;;;;8.64;73.04;101148.22;5077517;28;45341;-78
2021/11/05 06:38:25;;;;;;;;;1.00;1.00;;;;;8.66;73.52;101153.44;5077112;28;45234;-78
2021/11/05 06:40:50;;;;;;;;;0.50;0.50;;;;;8.67;73.18;101157.84;5077521;28;45182;-78
2021/11/05 06:43:16;;;;;;;;;2.00;1.75;;;;;8.67;73.11;101163.13;5077399;28;45179;-78
2021/11/05 06:45:41;;;;;;;;;1.00;0.75;;;;;8.69;73.04;101162.13;5077710;28;45193;-78
2021/11/05 06:48:07;;;;;;;;;3.00;1.00;;;;;8.72;73.40;101167.34;5077237;28;46031;-78
2021/11/05 06:50:32;;;;;;;;;3.75;1.25;;;;;8.72;72.79;101167.34;5077291;28;45302;-78
2021/11/05 06:52:58;;;;;;;;;1.50;1.50;;;;;8.72;72.43;101166.47;5077264;28;45241;-78
2021/11/05 06:55:23;;;;;;;;;1.50;1.00;;;;;8.67;72.48;101171.94;5077302;28;45649;-78
2021/11/05 06:57:48;;;;;;;;;2.75;1.75;;;;;8.71;72.66;101181.50;5077099;28;45980;-78
2021/11/05 07:00:15;;;;;;;;;1.00;1.00;;;;;8.70;72.63;101187.72;5076493;28;45217;-78
2021/11/05 07:02:41;;;;;;;;;1.75;1.50;;;;;8.73;72.88;101192.06;5077158;28;45222;-78
2021/11/05 07:05:16;;;;;;;;;1.00;1.00;;;;;8.74;72.60;101196.44;5077465;28;45215;-78
2021/11/05 07:07:42;;;;;;;;;3.00;2.00;;;;;8.77;72.41;101202.50;5076840;28;45269;-78
2021/11/05 07:10:09;;;;;;;;;1.50;1.00;;;;;8.77;72.36;101206.94;5077108;28;45437;-78
2021/11/05 07:12:35;;;;;;;;;4.00;1.25;;;;;8.75;72.61;101209.66;5075665;28;45203;-78
2021/11/05 07:15:02;;;;;;;;;2.75;1.50;;;;;8.80;73.01;101222.72;5058679;28;45411;-78
2021/11/05 07:17:28;;;;;;;;;5.50;2.00;;;;;8.80;72.58;101218.28;5077012;28;45505;-78
2021/11/05 07:19:53;;;;;;;;;2.00;1.00;;;;;8.78;72.46;101229.88;5076846;28;45277;-78
2021/11/05 07:22:18;;;;;;;;;2.00;1.00;;;;;8.76;72.39;101231.72;5076920;28;45272;-78
2021/11/05 07:24:44;;;;;;;;;4.00;2.00;;;;;8.74;72.16;101230.91;5076795;28;45294;-78
2021/11/05 07:27:11;;;;;;;;;3.75;2.00;;;;;8.73;72.42;101242.44;5076636;28;45960;-78
2021/11/05 07:29:37;;;;;;;;;3.25;1.75;;;;;8.73;72.28;101245.09;5076830;28;45167;-78
2021/11/05 07:32:07;;;;;;;;;3.75;1.00;;;;;8.72;72.69;101248.66;5075472;28;45224;-78
2021/11/05 07:34:33;;;;;;;;;1.75;1.75;;;;;8.66;72.55;101252.38;5076339;28;45305;-78
2021/11/05 07:37:00;;;;;;;;;3.75;0.75;;;;;8.67;72.25;101262.09;5076736;28;45934;-78
2021/11/05 07:39:26;;;;;;;;;0.50;0.50;;;;;8.67;72.70;101263.88;5076627;28;45494;-78
2021/11/05 07:41:52;;;;;;;;;3.00;1.00;;;;;8.64;72.40;101263.06;5076847;28;45181;-78
2021/11/05 07:44:17;;;;;;;;;0.75;0.00;;;;;8.65;72.50;101269.25;5076690;28;45242;-78
2021/11/05 07:46:44;;;;;;;;;0.50;0.50;;;;;8.65;72.79;101279.84;5076508;28;45931;-78
2021/11/05 07:49:10;;;;;;;;;0.50;0.25;;;;;8.65;72.75;101279.84;5058106;28;45220;-78
2021/11/05 07:51:36;;;;;;;;;2.00;1.00;;;;;8.66;72.45;101284.19;5076516;28;45533;-79
2021/11/05 07:54:02;;;;;;;;;2.00;1.00;;;;;8.68;72.57;101290.34;5076382;28;45302;-78
2021/11/05 07:56:27;;;;;;;;;2.00;0.75;;;;;8.68;72.57;101292.09;5075702;28;45797;-79
2021/11/05 07:58:53;;;;;;;;;1.75;1.00;;;;;8.72;72.27;101291.97;5076070;28;45190;-79
2021/11/05 08:01:18;;;;;;;;;2.00;0.25;;;;;8.76;72.86;101296.19;5076522;28;45279;-79
2021/11/05 08:03:44;;;;;;;;;2.50;1.00;;;;;8.79;72.72;101301.41;5076393;28;45242;-78
2021/11/05 08:06:10;;;;;;;;;1.25;1.00;;;;;8.79;72.20;101298.78;5076457;28;45148;-78
2021/11/05 08:08:35;;;;;;;;;0.75;0.00;;;;;8.83;72.65;101304.81;5076110;28;45214;-79
2021/11/05 08:11:00;;;;;;;;;5.25;1.25;;;;;8.89;72.01;101304.63;5076455;28;45117;-79
2021/11/05 08:13:26;;;;;;;;;4.50;1.25;;;;;8.91;71.82;101305.41;5076214;28;45078;-78
2021/11/05 08:15:51;;;;;;;;;2.25;1.50;;;;;8.96;72.42;101308.78;5075925;28;45801;-78
2021/11/05 08:18:16;;;;;;;;;1.25;0.00;;;;;8.98;72.04;101309.56;5075980;28;45230;-78
2021/11/05 08:20:42;;;;;;;;;1.00;1.00;;;;;9.06;72.55;101311.06;5076052;28;45254;-79
2021/11/05 08:23:09;;;;;;;;;1.00;1.00;;;;;9.15;71.94;101322.22;5076400;28;45194;-79
2021/11/05 08:25:34;;;;;;;;;2.25;1.00;;;;;9.24;71.61;101328.97;5075925;28;47179;-79
2021/11/05 08:28:00;;;;;;;;;3.75;1.00;;;;;9.29;71.88;101332.31;5075853;28;45543;-79
2021/11/05 08:30:26;;;;;;;;;2.75;2.00;;;;;9.31;71.55;101333.09;5075916;28;45208;-79
2021/11/05 08:32:55;;;;;;;;;4.00;2.00;;;;;9.36;71.35;101340.03;5075733;28;45225;-79
2021/11/05 08:35:25;;;;;;;;;1.75;1.00;;;;;9.38;71.06;101344.38;5075746;28;45233;-78
2021/11/05 08:37:51;;;;;;;;;4.00;1.00;;;;;9.41;71.20;101344.25;5075611;28;45138;-78
2021/11/05 08:40:17;;;;;;;;;2.00;2.00;;;;;9.42;71.33;101346.00;5079502;28;45277;-78
2021/11/05 08:42:44;;;;;;;;;2.75;1.00;;;;;9.40;71.02;101345.16;5079290;28;45169;-78
2021/11/05 08:45:10;;;;;;;;;3.00;1.00;;;;;9.41;71.04;101343.41;5079419;28;45172;-78
2021/11/05 08:47:36;;;;;;;;;1.00;1.00;;;;;9.41;70.76;101346.06;5078915;28;45182;-78
2021/11/05 08:50:05;;;;;;;;;0.75;0.75;;;;;9.41;70.86;101357.53;5079498;28;45222;-78
2021/11/05 08:52:31;;;;;;;;;3.00;1.00;;;;;9.43;70.93;101358.31;5079004;28;45116;-78
2021/11/05 08:54:58;;;;;;;;;2.50;1.00;;;;;9.52;70.98;101357.13;5078898;28;46091;-76
2021/11/05 08:57:23;;;;;;;;;2.75;1.00;;;;;9.60;70.98;101370.09;5078756;28;45489;-77
2021/11/05 08:59:49;;;;;;;;;1.50;1.00;;;;;9.68;70.77;101368.03;5078741;28;45246;-76
2021/11/05 09:02:14;;;;;;;;;1.50;0.75;;;;;9.77;70.89;101365.00;5078621;28;45221;-77
2021/11/05 09:04:39;;;;;;;;;2.00;1.00;;;;;9.86;70.53;101371.72;5078707;28;46345;-77
2021/11/05 09:07:05;;;;;;;;;1.00;1.00;;;;;9.94;70.20;101358.16;5078833;28;45143;-77
2021/11/05 09:09:31;;;;;;;;;1.00;0.00;;;;;10.04;69.61;101370.16;5078650;28;45380;-78
2021/11/05 09:11:56;;;;;;;;;1.00;0.50;;;;;10.15;69.21;101381.22;5079110;28;45238;-77
2021/11/05 09:14:21;;;;;;;;;4.25;2.00;;;;;10.23;69.29;101393.31;5078531;28;45230;-78
2021/11/05 09:16:47;;;;;;;;;5.00;1.00;;;;;10.28;68.81;101389.56;5060240;28;45178;-76
2021/11/05 09:19:13;;;;;;;;;3.25;2.00;;;;;10.33;68.71;101394.66;5078685;28;45645;-76
2021/11/05 09:21:39;;;;;;;;;2.00;2.00;;;;;10.36;68.54;101400.78;5078711;28;45172;-76
2021/11/05 09:24:04;;;;;;;;;4.75;1.75;;;;;10.46;68.41;101403.03;5078263;28;46006;-76
2021/11/05 09:26:31;;;;;;;;;3.75;2.00;;;;;10.52;68.43;101414.28;5078655;28;45230;-77
2021/11/05 09:28:57;;;;;;;;;2.75;1.00;;;;;10.58;68.38;101415.84;5060124;28;45245;-76
2021/11/05 09:31:22;;;;;;;;;1.75;1.75;;;;;10.63;68.13;101410.31;5078893;28;45204;-77
2021/11/05 09:33:48;;;;;;;;;1.00;1.00;;;;;10.67;68.00;101420.78;5078133;28;45795;-77
2021/11/05 09:36:15;;;;;;;;;4.00;1.00;;;;;10.76;68.20;101426.63;5078446;28;45260;-77
2021/11/05 09:38:42;;;;;;;;;3.25;2.00;;;;;10.85;67.67;101426.25;5078304;28;45092;-77
2021/11/05 09:41:07;;;;;;;;;4.25;2.00;;;;;10.85;67.17;101423.59;5078606;28;45137;-77
2021/11/05 09:43:33;;;;;;;;;3.00;2.00;;;;;10.87;66.87;101427.03;5077977;28;45225;-77
2021/11/05 09:45:58;;;;;;;;;4.00;2.00;;;;;10.90;66.73;101429.56;5078404;28;45304;-77
2021/11/05 09:48:24;;;;;;;;;1.25;1.00;;;;;10.93;66.71;101432.13;5078115;28;45191;-77
2021/11/05 09:50:50;;;;;;;;;1.75;1.00;;;;;11.00;66.54;101435.34;5077303;28;45231;-78
2021/11/05 09:53:15;;;;;;;;;3.00;1.25;;;;;11.08;66.41;101438.56;5078000;28;45879;-77
2021/11/05 09:55:46;;;;;;;;;6.00;1.00;;;;;11.15;66.64;101441.84;5078071;28;45225;-76
2021/11/05 09:58:12;;;;;;;;;6.25;2.00;;;;;11.22;65.74;101438.81;5077789;28;45140;-76
2021/11/05 10:00:38;;;;;;;;;4.25;2.00;;;;;11.33;66.00;101445.47;5078291;28;45268;-76
2021/11/05 10:03:04;;;;;;;;;2.00;2.00;;;;;11.42;65.75;101445.06;5077737;28;46061;-76
2021/11/05 10:05:31;;;;;;;;;4.00;1.50;;;;;11.53;65.48;101452.59;5078137;28;45576;-76
2021/11/05 10:07:59;;;;;;;;;3.75;2.50;;;;;11.62;65.52;101457.47;5078008;28;45135;-77
2021/11/05 10:10:38;;;;;;;;;3.00;1.50;;;;;11.79;65.70;101455.88;5078078;28;45125;-77
2021/11/05 10:13:07;;;;;;;;;4.50;3.00;;;;;12.00;65.28;101462.00;5077562;28;45244;-77
2021/11/05 10:15:35;;;;;;;;;3.00;1.75;;;;;12.20;64.66;101461.94;5077609;28;45617;-77
2021/11/05 10:18:15;;;;;;;;;1.50;1.50;;;;;12.30;63.80;101451.72;5076208;28;45154;-77
2021/11/05 10:20:42;;;;;;;;;3.00;2.00;;;;;12.41;63.30;101467.16;5078035;28;45140;-77
2021/11/05 10:23:08;;;;;;;;;4.50;2.00;;;;;12.59;63.77;101468.09;5077292;28;46206;-76
2021/11/05 10:25:47;;;;;;;;;5.00;1.00;;;;;12.97;63.50;101476.00;5077803;28;45261;-77
2021/11/05 10:28:14;;;;;;;;;2.75;1.00;;;;;13.36;62.82;101474.03;5077394;28;45242;-77
2021/11/05 10:31:09;;;;;;;;;4.50;2.00;;;;;13.66;61.38;101476.03;5077728;28;45234;-76
2021/11/05 10:33:48;;;;;;;;;3.50;2.50;;;;;13.71;61.06;101476.63;5058130;28;45913;-75
2021/11/05 10:36:17;;;;;;;;;3.25;2.00;;;;;13.74;60.55;101476.50;5077332;28;45510;-76
2021/11/05 10:38:46;;;;;;;;;3.00;1.25;;;;;13.73;60.31;101485.44;5077313;28;45056;-76
2021/11/05 10:41:21;;;;;;;;;9.00;7.50;;;;;13.68;60.59;101475.03;5077566;28;45253;-76
2021/11/05 10:43:49;;;;;;;;;3.75;2.00;;;;;13.70;60.61;101482.94;5076906;28;46216;-76
2021/11/05 10:46:31;;;;;;;;;2.50;1.00;;;;;13.69;60.01;101489.22;5077362;28;45183;-77
2021/11/05 10:49:00;;;;;;;;;2.25;2.00;;;;;13.73;60.19;101486.31;5077164;28;45281;-77
2021/11/05 10:51:29;;;;;;;;;5.25;2.00;;;;;13.83;60.10;101484.00;5059061;28;45445;-77
2021/11/05 10:53:56;;;;;;;;;2.25;1.50;;;;;13.97;59.30;101481.44;5058496;28;46033;-77
2021/11/05 10:56:24;;;;;;;;;2.00;2.00;;;;;14.16;59.43;101485.75;5075348;28;45445;-77
2021/11/05 10:58:49;;;;;;;;;3.50;1.00;;;;;14.46;58.74;101477.81;5076576;28;45287;-77
2021/11/05 11:01:18;;;;;;;;;0.33;0.33;;;;;14.87;58.31;101481.78;5076859;28;45181;-77
2021/11/05 11:03:46;;;;;;;;;0.75;0.50;;;;;15.34;57.75;101485.25;5076688;28;46092;-78
2021/11/05 11:06:18;;;;;;;;;4.25;1.50;;;;;15.69;56.20;101483.09;5077052;28;45213;-77
2021/11/05 11:08:55;;;;;;;;;3.25;0.50;;;;;15.96;56.14;101479.69;5058444;28;45173;-77
2021/11/05 11:11:27;;;;;;;;;1.00;1.00;;;;;16.17;55.34;101485.47;5077097;28;45286;-77
2021/11/05 11:14:01;;;;;;;;;3.00;0.75;;;;;16.36;54.74;101486.97;5076535;28;46047;-77
2021/11/05 11:16:35;;;;;;;;;0.00;0.00;;;;;16.62;53.57;101477.22;5076965;28;45201;-77
2021/11/05 11:19:05;;;;;;;;;1.00;1.00;;;;;16.91;53.26;101477.13;5076610;28;45172;-77
2021/11/05 11:21:34;;;;;;;;;0.00;0.00;;;;;17.14;53.27;101478.22;5077037;28;45198;-77
2021/11/05 11:24:03;;;;;;;;;1.00;1.00;;;;;17.39;51.89;101472.03;5076456;28;45274;-77
2021/11/05 11:26:28;;;;;;;;;1.00;1.00;;;;;17.57;51.28;101477.09;5058279;28;46640;-78
2021/11/05 11:28:55;;;;;;;;;1.00;0.00;;;;;17.66;51.30;101478.25;5076900;28;45176;-77